Isle Of Innisfree — EIBW — position and weather

sailwx.info

Track history (hours):
 
Tides and Currents Weather Stations Pressure Air Temp Water Temp Dewpoint Dewpoint Depression Visibility Wind Speed Wind Dir Waves Ship Positions

Isle Of Innisfree

Operator: Irish Ferries

Last reported at 2018-Feb-15 08:49 UTC. Time now 2018-Feb-22 07:12 UTC.
Position N 58°42' W 003°13'.

Length 36 m; draft 6.6 m.

Type: Fishing. MMSI: 250102800.

Date/timePositionNaut miles runAvg speedWind from/ knotsBaromVisibWave heightAir tempDewpointWater temp
2018-Feb-15 08:49N 58°42' W 003°13'414.1
2018-Feb-15 08:30N 58°41' W 003°22'111 3.3
2018-Feb-13 22:43N 57°24' W 005°53'211.9
2018-Feb-13 22:30N 57°22' W 005°52'510.4
2018-Feb-13 22:00N 57°17' W 005°46'5 9.3
2018-Feb-13 21:29N 57°15' W 005°38'3210.2
2018-Feb-13 18:18N 56°48' W 006°10'24 9.1
2018-Feb-13 15:40N 56°30' W 005°42'210.6
2018-Feb-13 15:29N 56°29' W 005°39'510.6
2018-Feb-13 15:00N 56°23' W 005°39'611.0
2018-Feb-13 14:30N 56°19' W 005°45'3710.5
2018-Feb-13 11:01N 55°43' W 005°59'010.4
2018-Feb-13 11:00N 55°43' W 005°59'510.7
2018-Feb-13 10:30N 55°37' W 005°58'510.4
2018-Feb-13 10:00N 55°32' W 005°57'510.1
2018-Feb-13 09:30N 55°27' W 005°55'5 9.6
2018-Feb-13 09:00N 55°23' W 005°53'4 8.7
2018-Feb-13 08:30N 55°19' W 005°51'30 8.4
2018-Feb-13 04:57N 54°51' W 005°33'510.2
2018-Feb-13 04:27N 54°46' W 005°30'510.6
2018-Feb-13 04:00N 54°42' W 005°27'611.0
2018-Feb-13 03:30N 54°36' W 005°25'42 1.4
2018-Feb-11 20:41N 54°06' W 006°16'0 0.0
2018-Feb-11 20:30N 54°06' W 006°16'3 5.2
2018-Feb-11 20:00N 54°04' W 006°12'5 8.9
2018-Feb-11 19:29N 54°02' W 006°06'4 7.1
2018-Feb-11 18:58N 54°00' W 005°60'41 6.3
2018-Feb-11 12:21N 54°36' W 005°24'3 6.8
2018-Feb-11 11:58N 54°39' W 005°25'11 6.4
2018-Feb-11 10:19N 54°49' W 005°31'96 3.1
2018-Feb-10 03:17N 55°23' W 008°08'5 1.6
2018-Feb-10 00:02N 55°21' W 008°01'2 1.3
2018-Feb-09 22:31N 55°19' W 008°02'94 3.8
2018-Feb-08 22:00N 54°44' W 005°30'9 0.4
2018-Feb-08 00:40N 54°36' W 005°24'211.4
2018-Feb-08 00:28N 54°38' W 005°25'511.5
2018-Feb-08 00:00N 54°43' W 005°28'611.0
2018-Feb-07 23:27N 54°48' W 005°33'  
Track history (hours):
 
Tides and Currents Weather Stations Pressure Air Temp Water Temp Dewpoint Dewpoint Depression Visibility Wind Speed Wind Dir Waves Ship Positions

Isle Of Innisfree

Operator: Irish Ferries

Last reported at 2018-Feb-15 08:49 UTC. Time now 2018-Feb-22 07:12 UTC.
Position N 58°42' W 003°13'.

Length 36 m; draft 6.6 m.

Type: Fishing. MMSI: 250102800.

Date/timePositionNaut miles runAvg speedWind from/ knotsBaromVisibWave heightAir tempDewpointWater temp
2018-Feb-15 08:49N 58°42' W 003°13'414.1
2018-Feb-15 08:30N 58°41' W 003°22'111 3.3
2018-Feb-13 22:43N 57°24' W 005°53'211.9
2018-Feb-13 22:30N 57°22' W 005°52'510.4
2018-Feb-13 22:00N 57°17' W 005°46'5 9.3
2018-Feb-13 21:29N 57°15' W 005°38'3210.2
2018-Feb-13 18:18N 56°48' W 006°10'24 9.1
2018-Feb-13 15:40N 56°30' W 005°42'210.6
2018-Feb-13 15:29N 56°29' W 005°39'510.6
2018-Feb-13 15:00N 56°23' W 005°39'611.0
2018-Feb-13 14:30N 56°19' W 005°45'3710.5
2018-Feb-13 11:01N 55°43' W 005°59'010.4
2018-Feb-13 11:00N 55°43' W 005°59'510.7
2018-Feb-13 10:30N 55°37' W 005°58'510.4
2018-Feb-13 10:00N 55°32' W 005°57'510.1
2018-Feb-13 09:30N 55°27' W 005°55'5 9.6
2018-Feb-13 09:00N 55°23' W 005°53'4 8.7
2018-Feb-13 08:30N 55°19' W 005°51'30 8.4
2018-Feb-13 04:57N 54°51' W 005°33'510.2
2018-Feb-13 04:27N 54°46' W 005°30'510.6
2018-Feb-13 04:00N 54°42' W 005°27'611.0
2018-Feb-13 03:30N 54°36' W 005°25'42 1.4
2018-Feb-11 20:41N 54°06' W 006°16'0 0.0
2018-Feb-11 20:30N 54°06' W 006°16'3 5.2
2018-Feb-11 20:00N 54°04' W 006°12'5 8.9
2018-Feb-11 19:29N 54°02' W 006°06'4 7.1
2018-Feb-11 18:58N 54°00' W 005°60'41 6.3
2018-Feb-11 12:21N 54°36' W 005°24'3 6.8
2018-Feb-11 11:58N 54°39' W 005°25'11 6.4
2018-Feb-11 10:19N 54°49' W 005°31'96 3.1
2018-Feb-10 03:17N 55°23' W 008°08'5 1.6
2018-Feb-10 00:02N 55°21' W 008°01'2 1.3
2018-Feb-09 22:31N 55°19' W 008°02'94 3.8
2018-Feb-08 22:00N 54°44' W 005°30'9 0.4
2018-Feb-08 00:40N 54°36' W 005°24'211.4
2018-Feb-08 00:28N 54°38' W 005°25'511.5
2018-Feb-08 00:00N 54°43' W 005°28'611.0
2018-Feb-07 23:27N 54°48' W 005°33'  

Dump ship's entire track history